createdAt,value
2018-07-23T00:01:08.985Z,71.87
2018-07-23T00:04:08.960Z,72.07
2018-07-23T00:07:08.910Z,71.87
2018-07-23T00:10:08.894Z,71.87
2018-07-23T00:13:08.870Z,72.20
2018-07-23T00:16:08.831Z,72.71
2018-07-23T00:19:08.766Z,73.51
2018-07-23T00:22:08.764Z,73.81
2018-07-23T00:25:08.701Z,73.71
2018-07-23T00:28:08.696Z,74.15
2018-07-23T00:31:08.649Z,74.15
2018-07-23T00:34:08.624Z,74.32
2018-07-23T00:37:08.570Z,73.85
2018-07-23T00:40:08.559Z,74.99
2018-07-23T00:43:08.492Z,75.79
2018-07-23T00:46:08.492Z,75.59
2018-07-23T00:49:08.431Z,75.39
2018-07-23T00:52:08.421Z,75.29
2018-07-23T00:55:08.355Z,75.70
2018-07-23T00:58:08.353Z,75.93
2018-07-23T01:01:08.298Z,76.43
2018-07-23T01:04:08.344Z,76.94
2018-07-23T01:07:08.305Z,76.30
2018-07-23T01:10:08.221Z,76.30
2018-07-23T01:13:08.150Z,76.34
2018-07-23T01:16:08.140Z,77.38
2018-07-23T01:19:08.100Z,77.62
2018-07-23T01:22:08.063Z,77.82
2018-07-23T01:25:08.019Z,79.03
2018-07-23T01:28:08.009Z,79.57
2018-07-23T01:31:08.011Z,80.88
2018-07-23T01:34:07.930Z,79.16
2018-07-23T01:37:07.900Z,80.11
2018-07-23T01:40:07.853Z,80.07
2018-07-23T01:43:07.835Z,80.31
2018-07-23T01:46:07.822Z,80.01
2018-07-23T01:49:07.754Z,79.41
2018-07-23T01:52:07.718Z,81.16
2018-07-23T01:55:07.707Z,80.96
2018-07-23T01:58:07.727Z,81.02
2018-07-23T02:01:07.618Z,81.22
2018-07-23T02:04:07.582Z,81.16
2018-07-23T02:07:07.537Z,80.79
2018-07-23T02:10:08.027Z,81.60
2018-07-23T02:13:07.474Z,82.07
2018-07-23T02:16:07.444Z,81.87
2018-07-23T02:19:07.398Z,81.96
2018-07-23T02:22:07.382Z,81.42
2018-07-23T02:25:07.332Z,80.82
2018-07-23T02:28:07.302Z,81.08
2018-07-23T02:31:07.274Z,79.03
2018-07-23T02:34:08.020Z,79.03
2018-07-23T02:37:07.187Z,79.23
2018-07-23T02:40:07.193Z,78.89
2018-07-23T02:43:07.121Z,77.75
2018-07-23T02:46:07.108Z,77.44
2018-07-23T02:49:07.053Z,77.64
2018-07-23T02:52:07.054Z,77.95
2018-07-23T02:55:06.994Z,77.64
2018-07-23T02:58:06.975Z,77.55
2018-07-23T03:01:06.914Z,76.90
2018-07-23T03:04:06.918Z,77.40
2018-07-23T03:07:06.854Z,77.17
2018-07-23T03:10:06.841Z,77.61
2018-07-23T03:13:06.773Z,77.81
2018-07-23T03:16:06.773Z,77.81
2018-07-23T03:19:06.717Z,78.31
2018-07-23T03:22:06.709Z,78.21
2018-07-23T03:25:06.636Z,78.91
2018-07-23T03:28:06.628Z,78.75
2018-07-23T03:31:06.577Z,78.15
2018-07-23T03:34:06.558Z,78.21
2018-07-23T03:37:06.577Z,78.85
2018-07-23T03:40:06.497Z,79.25
2018-07-23T03:43:06.459Z,79.36
2018-07-23T03:46:06.428Z,78.85
2018-07-23T03:49:06.362Z,79.05
2018-07-23T03:52:06.368Z,79.69
2018-07-23T03:55:06.310Z,79.86
2018-07-23T03:58:06.436Z,80.57
2018-07-23T04:01:06.222Z,79.36
2018-07-23T04:04:06.228Z,79.46
2018-07-23T04:07:06.205Z,79.42
2018-07-23T04:10:06.223Z,79.08
2018-07-23T04:13:06.080Z,77.57
2018-07-23T04:16:06.066Z,76.73
2018-07-23T04:19:06.037Z,78.74
2018-07-23T04:22:06.011Z,78.74
2018-07-23T04:25:05.955Z,79.04
2018-07-23T04:28:05.955Z,78.94
2018-07-23T04:31:05.875Z,79.14
2018-07-23T04:34:05.860Z,79.64
2018-07-23T04:37:05.816Z,77.83
2018-07-23T04:40:05.800Z,79.21
2018-07-23T04:43:05.746Z,79.21
2018-07-23T04:46:05.724Z,79.30
2018-07-23T04:49:05.680Z,76.59
2018-07-23T04:52:05.668Z,77.06
2018-07-23T04:55:05.611Z,78.46
2018-07-23T04:58:05.598Z,79.37
2018-07-23T05:01:05.545Z,78.63
2018-07-23T05:04:05.511Z,76.82
2018-07-23T05:07:05.491Z,75.71
2018-07-23T05:10:05.458Z,73.81
2018-07-23T05:13:05.417Z,73.97
2018-07-23T05:16:05.445Z,74.04
2018-07-23T05:19:05.344Z,74.10
2018-07-23T05:22:05.329Z,72.06
2018-07-23T05:25:05.277Z,70.16
2018-07-23T05:28:05.266Z,69.56
2018-07-23T05:31:05.211Z,68.52
2018-07-23T05:34:05.173Z,69.49
2018-07-23T05:37:05.143Z,68.89
2018-07-23T05:40:05.111Z,68.59
2018-07-23T05:43:05.074Z,68.16
2018-07-23T05:46:05.039Z,68.32
2018-07-23T05:49:05.014Z,66.79
2018-07-23T05:52:05.518Z,65.59
2018-07-23T05:55:04.933Z,66.09
2018-07-23T05:58:04.904Z,66.49
2018-07-23T06:01:04.866Z,65.76
2018-07-23T06:04:04.857Z,66.33
2018-07-23T06:07:04.848Z,65.60
2018-07-23T06:10:04.780Z,64.47
2018-07-23T06:13:04.775Z,63.97
2018-07-23T06:16:04.705Z,62.45
2018-07-23T06:19:04.677Z,61.61
2018-07-23T06:22:04.643Z,62.61
2018-07-23T06:25:04.598Z,59.83
2018-07-23T06:28:04.599Z,59.77
2018-07-23T06:31:04.529Z,58.04
2018-07-23T06:34:04.527Z,58.11
2018-07-23T06:37:04.466Z,56.57
2018-07-23T06:40:04.495Z,54.50
2018-07-23T06:43:04.421Z,53.45
2018-07-23T06:46:04.399Z,52.14
2018-07-23T06:49:04.335Z,50.98
2018-07-23T06:52:04.333Z,46.09
2018-07-23T06:55:04.292Z,47.10
2018-07-23T06:58:04.277Z,48.71
2018-07-23T07:01:04.214Z,47.03
2018-07-23T07:04:04.212Z,49.25
2018-07-23T07:07:04.164Z,50.06
2018-07-23T07:10:04.132Z,50.36
2018-07-23T07:13:04.106Z,49.20
2018-07-23T07:16:04.077Z,46.04
2018-07-23T07:19:04.029Z,46.22
2018-07-23T07:22:04.005Z,47.15
2018-07-23T07:25:03.968Z,45.34
2018-07-23T07:28:03.953Z,46.07
2018-07-23T07:31:03.909Z,46.93
2018-07-23T07:34:03.902Z,47.03
2018-07-23T07:37:03.844Z,46.39
2018-07-23T07:40:03.830Z,46.66
2018-07-23T07:43:03.793Z,46.45
2018-07-23T07:46:03.756Z,46.14
2018-07-23T07:49:03.721Z,46.93
2018-07-23T07:52:03.694Z,45.60
2018-07-23T07:55:03.661Z,44.87
2018-07-23T07:58:03.650Z,46.31
2018-07-23T08:01:03.594Z,46.70
2018-07-23T08:04:03.591Z,45.52
2018-07-23T08:07:03.679Z,44.00
2018-07-23T08:10:03.529Z,44.03
2018-07-23T08:13:03.467Z,42.58
2018-07-23T08:16:03.465Z,44.18
2018-07-23T08:19:03.407Z,42.68
2018-07-23T08:22:03.430Z,41.65
2018-07-23T08:25:03.391Z,41.94
2018-07-23T08:28:03.339Z,37.68
2018-07-23T08:31:03.297Z,41.09
2018-07-23T08:34:03.288Z,40.53
2018-07-23T08:37:03.382Z,41.38
2018-07-23T08:40:03.228Z,41.89
2018-07-23T08:43:03.211Z,41.75
2018-07-23T08:46:03.166Z,43.05
2018-07-23T08:49:03.121Z,42.34
2018-07-23T08:52:03.104Z,39.19
2018-07-23T08:55:03.045Z,40.76
2018-07-23T08:58:03.044Z,41.37
2018-07-23T09:01:02.997Z,38.52
2018-07-23T09:04:03.051Z,38.58
2018-07-23T09:07:02.930Z,38.35
2018-07-23T09:10:02.922Z,38.60
2018-07-23T09:13:02.871Z,36.22
2018-07-23T09:16:02.853Z,37.35
2018-07-23T09:19:02.847Z,38.56
2018-07-23T09:22:02.828Z,35.50
2018-07-23T09:25:02.766Z,37.25
2018-07-23T09:28:02.815Z,38.52
2018-07-23T09:31:02.796Z,39.09
2018-07-23T09:34:02.681Z,38.25
2018-07-23T09:37:02.699Z,36.59
2018-07-23T09:40:02.641Z,36.35
2018-07-23T09:43:02.595Z,37.52
2018-07-23T09:46:02.595Z,35.85
2018-07-23T09:49:02.536Z,34.06
2018-07-23T09:52:02.522Z,34.84
2018-07-23T09:55:02.476Z,33.95
2018-07-23T09:58:02.568Z,34.29
2018-07-23T10:01:02.428Z,35.63
2018-07-23T10:04:02.450Z,37.15
2018-07-23T10:07:02.392Z,37.38
2018-07-23T10:10:02.381Z,37.45
2018-07-23T10:13:02.335Z,37.56
2018-07-23T10:16:02.311Z,37.21
2018-07-23T10:19:02.261Z,37.13
2018-07-23T10:22:02.287Z,38.23
2018-07-23T10:25:02.204Z,36.33
2018-07-23T10:28:02.190Z,36.74
2018-07-23T10:31:02.257Z,36.92
2018-07-23T10:34:02.161Z,37.63
2018-07-23T10:38:38.697Z,37.35
2018-07-23T10:41:38.688Z,35.75
2018-07-23T10:44:38.645Z,35.30
2018-07-23T10:47:38.622Z,36.24
2018-07-23T10:50:38.590Z,37.78
2018-07-23T10:53:38.608Z,38.48
2018-07-23T10:56:38.560Z,37.21
2018-07-23T10:59:38.542Z,36.18
2018-07-23T11:02:38.482Z,37.54
2018-07-23T11:05:38.465Z,36.53
2018-07-23T11:08:38.417Z,36.14
2018-07-23T11:11:38.413Z,34.94
2018-07-23T11:14:38.361Z,36.14
2018-07-23T11:17:38.346Z,35.30
2018-07-23T11:20:38.324Z,36.61
2018-07-23T11:23:38.315Z,35.24
2018-07-23T11:26:38.308Z,37.37
2018-07-23T11:29:38.239Z,36.16
2018-07-23T11:32:38.209Z,36.39
2018-07-23T11:35:38.187Z,36.08
2018-07-23T11:38:38.142Z,34.28
2018-07-23T11:41:38.173Z,34.75
2018-07-23T11:44:38.085Z,34.34
2018-07-23T11:47:38.065Z,35.81
2018-07-23T11:50:38.044Z,33.46
2018-07-23T11:53:38.062Z,34.24
2018-07-23T11:56:38.029Z,32.08
2018-07-23T11:59:37.981Z,28.80
2018-07-23T12:02:37.927Z,28.54
2018-07-23T12:05:37.926Z,29.24
2018-07-23T12:08:37.883Z,31.10
2018-07-23T12:11:37.876Z,31.29
2018-07-23T12:14:37.840Z,33.31
2018-07-23T12:17:37.890Z,34.50
2018-07-23T12:20:37.787Z,34.58
2018-07-23T12:23:37.765Z,35.97
2018-07-23T12:26:37.775Z,36.25
2018-07-23T12:29:37.717Z,38.93
2018-07-23T12:32:37.682Z,34.05
2018-07-23T12:35:37.656Z,34.61
2018-07-23T12:38:37.633Z,33.54
2018-07-23T12:41:37.606Z,34.47
2018-07-23T12:44:37.563Z,35.68
2018-07-23T12:47:37.555Z,35.21
2018-07-23T12:50:37.503Z,36.57
2018-07-23T12:53:37.511Z,35.61
2018-07-23T12:56:37.446Z,35.73
2018-07-23T12:59:37.484Z,35.25
2018-07-23T13:02:37.398Z,34.96
2018-07-23T13:05:37.377Z,34.65
2018-07-23T13:08:37.336Z,32.63
2018-07-23T13:11:37.321Z,33.77
2018-07-23T13:14:37.280Z,35.36
2018-07-23T13:17:37.270Z,32.97
2018-07-23T13:20:37.235Z,31.34
2018-07-23T13:23:37.217Z,31.32
2018-07-23T13:26:37.183Z,31.25
2018-07-23T13:29:37.199Z,33.87
2018-07-23T13:32:37.144Z,35.06
2018-07-23T13:35:37.118Z,34.47
2018-07-23T13:38:37.122Z,34.06
2018-07-23T13:41:37.074Z,35.69
2018-07-23T13:44:37.029Z,36.16
2018-07-23T13:47:37.008Z,34.39
2018-07-23T13:50:36.965Z,35.61
2018-07-23T13:53:37.003Z,35.58
2018-07-23T13:56:36.922Z,35.99
2018-07-23T13:59:36.946Z,35.71
2018-07-23T14:02:36.976Z,37.39
2018-07-23T14:05:36.882Z,36.43
2018-07-23T14:08:36.852Z,37.61
2018-07-23T14:11:36.842Z,37.59
2018-07-23T14:14:36.784Z,37.49
2018-07-23T14:17:36.725Z,36.02
2018-07-23T14:20:36.694Z,37.10
2018-07-23T14:23:36.673Z,34.89
2018-07-23T14:26:36.636Z,36.52
2018-07-23T14:29:36.615Z,34.50
2018-07-23T14:32:36.578Z,34.26
2018-07-23T14:35:36.559Z,33.46
2018-07-23T14:38:36.572Z,34.55
2018-07-23T14:41:36.531Z,35.07
2018-07-23T14:44:36.473Z,35.19
2018-07-23T14:47:36.452Z,34.88
2018-07-23T14:50:36.411Z,34.77
2018-07-23T14:53:36.402Z,35.07
2018-07-23T14:56:36.359Z,33.14
2018-07-23T14:59:36.420Z,33.23
2018-07-23T15:02:36.304Z,34.28
2018-07-23T15:05:36.285Z,35.27
2018-07-23T15:08:36.299Z,37.43
2018-07-23T15:11:36.235Z,38.34
2018-07-23T15:14:36.274Z,37.26
2018-07-23T15:17:36.209Z,36.71
2018-07-23T15:20:36.157Z,35.94
2018-07-23T15:23:36.201Z,36.59
2018-07-23T15:26:36.087Z,37.33
2018-07-23T15:29:36.063Z,37.31
2018-07-23T15:32:36.006Z,36.40
2018-07-23T15:35:36.019Z,37.73
2018-07-23T15:38:35.990Z,35.27
2018-07-23T15:41:35.993Z,35.95
2018-07-23T15:44:36.406Z,34.94
2018-07-23T15:47:36.011Z,35.17
2018-07-23T15:50:35.862Z,36.08
2018-07-23T15:53:35.841Z,37.59
2018-07-23T15:56:35.782Z,38.35
2018-07-23T15:59:35.775Z,38.53
2018-07-23T16:02:35.721Z,38.53
2018-07-23T16:05:35.719Z,37.52
2018-07-23T16:08:35.662Z,35.53
2018-07-23T16:11:35.736Z,34.94
2018-07-23T16:14:35.604Z,36.96
2018-07-23T16:17:35.623Z,38.51
2018-07-23T16:20:35.629Z,39.31
2018-07-23T16:23:35.555Z,39.35
2018-07-23T16:26:35.485Z,38.25
2018-07-23T16:29:35.465Z,39.22
2018-07-23T16:32:35.451Z,36.77
2018-07-23T16:35:35.409Z,35.02
2018-07-23T16:38:35.382Z,35.46
2018-07-23T16:41:35.366Z,36.10
2018-07-23T16:44:35.313Z,36.18
2018-07-23T16:47:35.336Z,35.66
2018-07-23T16:50:35.252Z,34.61
2018-07-23T16:53:35.265Z,34.21
2018-07-23T16:56:35.212Z,34.24
2018-07-23T16:59:35.189Z,34.21
2018-07-23T17:02:35.238Z,33.29
2018-07-23T17:05:35.133Z,38.55
2018-07-23T17:08:35.088Z,37.30
2018-07-23T17:11:35.061Z,35.63
2018-07-23T17:14:35.036Z,36.93
2018-07-23T17:17:35.012Z,34.75
2018-07-23T17:20:34.996Z,37.19
2018-07-23T17:23:34.956Z,36.18
2018-07-23T17:26:34.926Z,36.36
2018-07-23T17:29:34.925Z,36.83
2018-07-23T17:32:34.846Z,34.16
2018-07-23T17:35:34.901Z,35.39
2018-07-23T17:38:34.797Z,34.88
2018-07-23T17:41:34.837Z,35.78
2018-07-23T17:44:34.737Z,35.64
2018-07-23T17:47:34.728Z,36.60
2018-07-23T17:50:34.675Z,36.05
2018-07-23T17:53:34.672Z,35.81
2018-07-23T17:56:34.622Z,40.31
2018-07-23T17:59:34.628Z,40.55
2018-07-23T18:02:34.563Z,42.00
2018-07-23T18:05:34.549Z,45.07
2018-07-23T18:08:34.500Z,45.04
2018-07-23T18:11:34.488Z,45.75
2018-07-23T18:14:34.443Z,45.56
2018-07-23T18:17:34.449Z,46.25
2018-07-23T18:20:34.366Z,45.85
2018-07-23T18:23:34.349Z,44.84
2018-07-23T18:26:34.302Z,46.15
2018-07-23T18:29:34.303Z,45.65
2018-07-23T18:32:34.236Z,45.06
2018-07-23T18:35:34.217Z,44.96
2018-07-23T18:38:34.456Z,47.85
2018-07-23T18:41:34.156Z,48.36
2018-07-23T18:44:34.107Z,47.18
2018-07-23T18:47:34.111Z,48.98
2018-07-23T18:50:34.050Z,49.60
2018-07-23T18:53:34.027Z,49.72
2018-07-23T18:56:34.034Z,50.73
2018-07-23T18:59:34.000Z,52.96
2018-07-23T19:02:33.926Z,51.28
2018-07-23T19:05:33.943Z,53.38
2018-07-23T19:08:33.887Z,53.70
2018-07-23T19:11:33.880Z,54.89
2018-07-23T19:14:33.816Z,57.23
2018-07-23T19:17:33.807Z,58.54
2018-07-23T19:20:33.847Z,57.15
2018-07-23T19:23:33.769Z,59.07
2018-07-23T19:26:33.736Z,60.58
2018-07-23T19:29:33.667Z,61.01
2018-07-23T19:32:33.630Z,63.13
2018-07-23T19:35:33.651Z,62.76
2018-07-23T19:38:33.550Z,62.46
2018-07-23T19:41:33.530Z,62.46
2018-07-23T19:44:33.503Z,63.39
2018-07-23T19:47:33.472Z,63.22
2018-07-23T19:50:33.421Z,64.34
2018-07-23T19:53:33.394Z,65.05
2018-07-23T19:56:33.356Z,64.75
2018-07-23T19:59:33.316Z,65.37
2018-07-23T20:02:33.286Z,65.57
2018-07-23T20:05:33.250Z,65.50
2018-07-23T20:08:33.212Z,65.31
2018-07-23T20:11:33.188Z,65.11
2018-07-23T20:14:33.148Z,63.88
2018-07-23T20:17:33.278Z,64.31
2018-07-23T20:20:33.085Z,65.64
2018-07-23T20:23:33.082Z,65.67
2018-07-23T20:26:33.065Z,66.30
2018-07-23T20:29:33.031Z,67.19
2018-07-23T20:32:32.979Z,67.40
2018-07-23T20:35:32.953Z,67.43
2018-07-23T20:38:32.883Z,67.43
2018-07-23T20:41:32.875Z,68.03
2018-07-23T20:44:32.877Z,67.60
2018-07-23T20:47:32.828Z,67.49
2018-07-23T20:50:32.770Z,68.23
2018-07-23T20:53:34.594Z,69.13
2018-07-23T20:56:32.741Z,69.02
2018-07-23T20:59:32.679Z,69.06
2018-07-23T21:02:32.637Z,69.96
2018-07-23T21:05:32.634Z,70.26
2018-07-23T21:08:32.571Z,70.29
2018-07-23T21:11:32.591Z,70.19
2018-07-23T21:14:32.491Z,69.69
2018-07-23T21:17:32.546Z,68.89
2018-07-23T21:20:32.463Z,68.49
2018-07-23T21:23:32.427Z,71.59
2018-07-23T21:26:32.364Z,70.73
2018-07-23T21:29:32.358Z,70.83
2018-07-23T21:32:32.419Z,71.76
2018-07-23T21:35:32.300Z,72.06
2018-07-23T21:38:32.270Z,72.09
2018-07-23T21:41:32.220Z,71.96
2018-07-23T21:44:32.187Z,73.39
2018-07-23T21:47:34.128Z,73.19
2018-07-23T21:50:32.181Z,71.69
2018-07-23T21:53:32.128Z,72.00
2018-07-23T21:56:32.096Z,71.59
2018-07-23T21:59:32.008Z,71.69
2018-07-23T22:02:32.018Z,71.19
2018-07-23T22:05:31.972Z,70.26
2018-07-23T22:08:31.930Z,69.76
2018-07-23T22:11:31.920Z,70.26
2018-07-23T22:14:31.912Z,70.46
2018-07-23T22:17:31.855Z,71.46
2018-07-23T22:20:31.827Z,71.69
2018-07-23T22:23:31.859Z,71.69
2018-07-23T22:26:31.737Z,71.39
2018-07-23T22:29:31.715Z,70.46
2018-07-23T22:32:31.663Z,71.39
2018-07-23T22:35:31.661Z,71.16
2018-07-23T22:38:31.577Z,71.69
2018-07-23T22:41:31.579Z,73.00
2018-07-23T22:44:31.515Z,73.13
2018-07-23T22:47:31.497Z,72.97
2018-07-23T22:50:31.540Z,73.40
2018-07-23T22:53:31.436Z,74.48
2018-07-23T22:56:31.419Z,75.48
2018-07-23T22:59:31.418Z,76.18
2018-07-23T23:02:31.336Z,75.88
2018-07-23T23:05:31.304Z,76.18
2018-07-23T23:08:31.261Z,76.89
2018-07-23T23:11:31.261Z,77.32
2018-07-23T23:14:31.178Z,77.59
2018-07-23T23:17:31.183Z,78.73
2018-07-23T23:20:31.116Z,78.83
2018-07-23T23:23:31.104Z,78.63
2018-07-23T23:26:31.066Z,78.93
2018-07-23T23:29:31.061Z,78.97
2018-07-23T23:32:30.989Z,79.77
2018-07-23T23:35:30.970Z,78.97
2018-07-23T23:38:30.912Z,79.10
2018-07-23T23:41:30.915Z,80.01
2018-07-23T23:44:30.877Z,80.91
2018-07-23T23:47:30.832Z,80.77
2018-07-23T23:50:30.813Z,79.47
2018-07-23T23:53:32.658Z,79.57
2018-07-23T23:56:30.724Z,78.86
2018-07-23T23:59:30.722Z,79.61
